Time;durP1;ratioP1;P1;durP2;ratioP2;P2;SDS_P1;SDS_P2;PMS_P1;PMS_P2;Temp;Humidity;BMP_temperature;BMP_pressure;BME280_temperature;BME280_humidity;BME280_pressure;Samples;Min_cycle;Max_cycle;Signal;HPM_P1;HPM_P2
2022/10/27 00:00:51;;;;;;;17.30;7.80;;;;;;;;;;5054431;28;20108;-74
2022/10/27 00:03:17;;;;;;;14.68;7.57;;;;;;;;;;5054304;28;20025;-74
2022/10/27 00:05:44;;;;;;;13.32;7.03;;;;;;;;;;5054834;28;20544;-74
2022/10/27 00:08:14;;;;;;;14.55;7.50;;;;;;;;;;5054276;28;20037;-74
2022/10/27 00:10:41;;;;;;;16.30;7.43;;;;;;;;;;5054320;28;20513;-74
2022/10/27 00:13:06;;;;;;;18.63;8.00;;;;;;;;;;5054137;28;20021;-74
2022/10/27 00:15:32;;;;;;;15.25;7.75;;;;;;;;;;5054537;28;20372;-74
2022/10/27 00:17:57;;;;;;;18.70;7.88;;;;;;;;;;5054373;28;20064;-74
2022/10/27 00:20:22;;;;;;;19.25;7.95;;;;;;;;;;5054027;28;20024;-73
2022/10/27 00:22:47;;;;;;;17.52;7.97;;;;;;;;;;5053761;28;20021;-73
2022/10/27 00:25:13;;;;;;;19.13;7.88;;;;;;;;;;5053975;28;20056;-74
2022/10/27 00:27:38;;;;;;;15.90;7.57;;;;;;;;;;5053865;28;20029;-73
2022/10/27 00:30:03;;;;;;;12.80;7.13;;;;;;;;;;5054188;28;20025;-73
2022/10/27 00:32:29;;;;;;;13.88;7.53;;;;;;;;;;5052497;28;20487;-74
2022/10/27 00:34:54;;;;;;;12.68;6.90;;;;;;;;;;5053703;28;20029;-74
2022/10/27 00:37:19;;;;;;;11.23;6.82;;;;;;;;;;5053933;28;20115;-73
2022/10/27 00:39:44;;;;;;;14.05;6.88;;;;;;;;;;5053752;28;20025;-73
2022/10/27 00:42:13;;;;;;;12.48;7.05;;;;;;;;;;5053644;28;20021;-73
2022/10/27 00:44:39;;;;;;;15.38;7.50;;;;;;;;;;5053048;28;20017;-74
2022/10/27 00:47:18;;;;;;;16.05;7.13;;;;;;;;;;5053584;28;20021;-74
2022/10/27 00:49:54;;;;;;;15.57;6.95;;;;;;;;;;5068972;28;20029;-73
2022/10/27 00:52:27;;;;;;;14.75;7.40;;;;;;;;;;5053382;28;20048;-73
2022/10/27 00:54:55;;;;;;;14.32;7.05;;;;;;;;;;5053406;28;20024;-75
2022/10/27 00:57:20;;;;;;;12.38;6.65;;;;;;;;;;5053344;28;20527;-74
2022/10/27 00:59:46;;;;;;;15.25;7.32;;;;;;;;;;5053257;28;20028;-73
2022/10/27 01:02:11;;;;;;;14.30;6.90;;;;;;;;;;5053232;28;20090;-72
2022/10/27 01:04:51;;;;;;;14.48;7.20;;;;;;;;;;5053156;28;20020;-75
2022/10/27 01:07:19;;;;;;;15.23;7.72;;;;;;;;;;5068842;28;20021;-74
2022/10/27 01:09:45;;;;;;;14.77;6.90;;;;;;;;;;5053188;28;20490;-74
2022/10/27 01:12:10;;;;;;;15.30;7.53;;;;;;;;;;5053164;28;20095;-73
2022/10/27 01:14:36;;;;;;;14.13;7.07;;;;;;;;;;5052834;28;20390;-73
2022/10/27 01:17:32;;;;;;;11.27;6.47;;;;;;;;;;5053005;28;20025;-73
2022/10/27 01:20:35;;;;;;;11.88;6.60;;;;;;;;;;5069116;28;20024;-73
2022/10/27 01:23:13;;;;;;;11.07;6.57;;;;;;;;;;5053048;28;20466;-74
2022/10/27 01:26:07;;;;;;;12.65;7.35;;;;;;;;;;5067887;28;20021;-75
2022/10/27 01:28:45;;;;;;;17.08;7.05;;;;;;;;;;5051067;28;20048;-74
2022/10/27 01:31:21;;;;;;;14.68;7.45;;;;;;;;;;5053079;28;20029;-74
2022/10/27 01:33:54;;;;;;;14.13;6.40;;;;;;;;;;5052822;28;20410;-74
2022/10/27 01:36:34;;;;;;;14.00;6.20;;;;;;;;;;5052807;28;20111;-73
2022/10/27 01:39:10;;;;;;;16.77;6.82;;;;;;;;;;5052855;28;20133;-72
2022/10/27 01:41:46;;;;;;;17.98;6.88;;;;;;;;;;5052541;28;20028;-74
2022/10/27 01:44:17;;;;;;;14.77;6.78;;;;;;;;;;5052876;28;20024;-74
2022/10/27 01:46:43;;;;;;;17.65;6.65;;;;;;;;;;5052988;28;20040;-73
2022/10/27 01:49:08;;;;;;;14.98;6.95;;;;;;;;;;5052820;28;20017;-73
2022/10/27 01:51:34;;;;;;;13.60;6.90;;;;;;;;;;5050956;28;20048;-73
2022/10/27 01:54:00;;;;;;;16.85;7.00;;;;;;;;;;5052364;28;20037;-74
2022/10/27 01:56:47;;;;;;;16.88;6.70;;;;;;;;;;5052537;28;20032;-74
2022/10/27 01:59:40;;;;;;;15.15;7.03;;;;;;;;;;5053142;28;20028;-73
2022/10/27 02:02:25;;;;;;;14.65;6.93;;;;;;;;;;5052429;28;20029;-74
2022/10/27 02:05:09;;;;;;;13.50;6.63;;;;;;;;;;5052306;28;20465;-73
2022/10/27 02:07:44;;;;;;;16.20;6.85;;;;;;;;;;5052631;28;20475;-74
2022/10/27 02:10:18;;;;;;;17.48;6.68;;;;;;;;;;5052243;28;20036;-74
2022/10/27 02:12:44;;;;;;;;;;;;;;;;;;5051239;28;20075;-74
2022/10/27 02:15:20;;;;;;;14.13;6.28;;;;;;;;;;5052502;28;20297;-74
2022/10/27 02:17:47;;;;;;;16.67;7.10;;;;;;;;;;5052329;28;20501;-73
2022/10/27 02:20:19;;;;;;;18.60;7.15;;;;;;;;;;5052252;28;20029;-73
2022/10/27 02:22:46;;;;;;;12.50;6.57;;;;;;;;;;5052508;28;20029;-74
2022/10/27 02:25:11;;;;;;;14.35;7.00;;;;;;;;;;5050739;28;20040;-74
2022/10/27 02:27:40;;;;;;;14.50;7.00;;;;;;;;;;5052105;28;20021;-74
2022/10/27 02:30:07;;;;;;;14.13;6.78;;;;;;;;;;5052143;28;20047;-75
2022/10/27 02:32:33;;;;;;;18.17;7.18;;;;;;;;;;5052291;28;20423;-74
2022/10/27 02:34:59;;;;;;;16.60;6.97;;;;;;;;;;5052253;28;20417;-75
2022/10/27 02:37:30;;;;;;;14.88;7.05;;;;;;;;;;5054016;28;20029;-74
2022/10/27 02:39:55;;;;;;;13.52;7.32;;;;;;;;;;5056161;28;20028;-73
2022/10/27 02:42:21;;;;;;;12.80;7.22;;;;;;;;;;5055707;28;20091;-74
2022/10/27 02:44:46;;;;;;;10.95;6.65;;;;;;;;;;5055737;28;20021;-74
2022/10/27 02:47:11;;;;;;;15.95;7.30;;;;;;;;;;5055740;28;20044;-74
2022/10/27 02:49:36;;;;;;;13.88;7.32;;;;;;;;;;5055988;28;20399;-75
2022/10/27 02:52:03;;;;;;;14.75;7.90;;;;;;;;;;5055553;28;20040;-74
2022/10/27 02:54:29;;;;;;;13.68;6.78;;;;;;;;;;5071011;28;20024;-73
2022/10/27 02:56:54;;;;;;;18.55;7.63;;;;;;;;;;5055829;28;20074;-73
2022/10/27 02:59:19;;;;;;;20.52;7.13;;;;;;;;;;5055597;28;20056;-74
2022/10/27 03:01:45;;;;;;;18.23;7.28;;;;;;;;;;5055501;28;20493;-74
2022/10/27 03:04:10;;;;;;;15.25;7.03;;;;;;;;;;5055648;28;20049;-74
2022/10/27 03:06:36;;;;;;;13.10;6.75;;;;;;;;;;5055300;28;20027;-74
2022/10/27 03:09:01;;;;;;;17.52;6.95;;;;;;;;;;5055427;28;20119;-74
2022/10/27 03:11:26;;;;;;;20.67;7.07;;;;;;;;;;5055421;28;20021;-73
2022/10/27 03:13:51;;;;;;;14.20;6.55;;;;;;;;;;5055537;28;20486;-75
2022/10/27 03:16:17;;;;;;;14.32;6.97;;;;;;;;;;5055169;28;20028;-74
2022/10/27 03:18:42;;;;;;;17.35;7.47;;;;;;;;;;5055151;28;20021;-74
2022/10/27 03:21:07;;;;;;;12.95;6.63;;;;;;;;;;5055258;28;20496;-74
2022/10/27 03:23:33;;;;;;;15.88;6.95;;;;;;;;;;5055189;28;20021;-74
2022/10/27 03:25:59;;;;;;;19.10;7.20;;;;;;;;;;5054999;28;20017;-74
2022/10/27 03:28:24;;;;;;;15.07;7.80;;;;;;;;;;5055019;28;20029;-74
2022/10/27 03:30:50;;;;;;;16.42;7.00;;;;;;;;;;5055222;28;20509;-74
2022/10/27 03:33:15;;;;;;;12.93;6.78;;;;;;;;;;5055009;28;20017;-74
2022/10/27 03:35:40;;;;;;;16.10;7.07;;;;;;;;;;5055105;28;20082;-74
2022/10/27 03:38:05;;;;;;;19.85;6.97;;;;;;;;;;5054890;28;20035;-75
2022/10/27 03:40:31;;;;;;;15.07;6.70;;;;;;;;;;5054852;28;20029;-75
2022/10/27 03:42:57;;;;;;;13.05;6.85;;;;;;;;;;5054730;28;20035;-74
2022/10/27 03:45:27;;;;;;;14.98;7.35;;;;;;;;;;5054962;28;20104;-74
2022/10/27 03:48:04;;;;;;;16.95;7.57;;;;;;;;;;5054304;28;20025;-73
2022/10/27 03:50:29;;;;;;;13.88;7.05;;;;;;;;;;5054821;28;20039;-74
2022/10/27 03:52:54;;;;;;;12.77;6.80;;;;;;;;;;5069990;28;20016;-73
2022/10/27 03:55:20;;;;;;;11.98;7.20;;;;;;;;;;5054655;28;20021;-74
2022/10/27 03:57:46;;;;;;;12.65;7.15;;;;;;;;;;5054545;28;20025;-74
2022/10/27 04:00:12;;;;;;;15.45;6.93;;;;;;;;;;5069946;28;20040;-73
2022/10/27 04:02:37;;;;;;;15.05;6.22;;;;;;;;;;5054311;28;20049;-74
2022/10/27 04:05:03;;;;;;;12.90;6.90;;;;;;;;;;5054300;28;20029;-75
2022/10/27 04:07:28;;;;;;;18.35;7.47;;;;;;;;;;5054584;28;20425;-74
2022/10/27 04:09:53;;;;;;;15.13;8.05;;;;;;;;;;5054330;28;20028;-75
2022/10/27 04:12:18;;;;;;;13.20;7.13;;;;;;;;;;5054372;28;20025;-75
2022/10/27 04:14:44;;;;;;;14.30;7.20;;;;;;;;;;5054119;28;20428;-75
2022/10/27 04:17:09;;;;;;;15.60;7.47;;;;;;;;;;5054334;28;20060;-74
2022/10/27 04:19:34;;;;;;;15.95;7.38;;;;;;;;;;5054129;28;20024;-73
2022/10/27 04:21:59;;;;;;;14.38;7.38;;;;;;;;;;5054242;28;20037;-73
2022/10/27 04:24:24;;;;;;;15.05;7.10;;;;;;;;;;5054230;28;20024;-74
2022/10/27 04:26:50;;;;;;;15.43;7.45;;;;;;;;;;5053882;28;20147;-74
2022/10/27 04:29:15;;;;;;;13.98;6.63;;;;;;;;;;5053919;28;20075;-75
2022/10/27 04:31:40;;;;;;;14.05;6.97;;;;;;;;;;5054069;28;20017;-75
2022/10/27 04:34:06;;;;;;;15.23;7.10;;;;;;;;;;5053720;28;20024;-75
2022/10/27 04:36:31;;;;;;;16.80;7.20;;;;;;;;;;5069089;28;20055;-74
2022/10/27 04:38:56;;;;;;;13.38;6.43;;;;;;;;;;5053985;28;20033;-73
2022/10/27 04:41:22;;;;;;;16.13;6.88;;;;;;;;;;5053639;28;20501;-73
2022/10/27 04:43:50;;;;;;;16.05;7.65;;;;;;;;;;5053645;28;20031;-74
2022/10/27 04:46:16;;;;;;;13.70;6.75;;;;;;;;;;5053538;28;20145;-74
2022/10/27 04:48:41;;;;;;;21.80;7.75;;;;;;;;;;5053580;28;20039;-74
2022/10/27 04:51:06;;;;;;;14.27;7.82;;;;;;;;;;5053390;28;20029;-74
2022/10/27 04:53:32;;;;;;;18.40;7.93;;;;;;;;;;5053269;28;20389;-74
2022/10/27 04:55:57;;;;;;;19.20;9.35;;;;;;;;;;5052087;28;20029;-74
2022/10/27 04:58:22;;;;;;;16.42;8.75;;;;;;;;;;5053398;28;20486;-74
2022/10/27 05:00:48;;;;;;;18.23;8.23;;;;;;;;;;5052597;28;20116;-73
2022/10/27 05:03:14;;;;;;;19.80;8.15;;;;;;;;;;5053163;28;20031;-74
2022/10/27 05:05:39;;;;;;;19.67;8.48;;;;;;;;;;5053449;28;20108;-74
2022/10/27 05:08:05;;;;;;;25.00;8.35;;;;;;;;;;5053431;28;20104;-74
2022/10/27 05:10:31;;;;;;;18.52;8.90;;;;;;;;;;5068433;28;20115;-74
2022/10/27 05:12:57;;;;;;;17.08;8.43;;;;;;;;;;5053037;28;20537;-74
2022/10/27 05:15:22;;;;;;;14.90;7.85;;;;;;;;;;5068387;28;20063;-74
2022/10/27 05:17:48;;;;;;;23.33;8.45;;;;;;;;;;5053053;28;20017;-73
2022/10/27 05:20:14;;;;;;;16.42;8.32;;;;;;;;;;5052924;28;20111;-74
2022/10/27 05:22:39;;;;;;;16.92;8.80;;;;;;;;;;5053096;28;20017;-74
2022/10/27 05:25:06;;;;;;;19.35;8.15;;;;;;;;;;5053015;28;20415;-74
2022/10/27 05:27:31;;;;;;;16.17;8.10;;;;;;;;;;5052709;28;20067;-73
2022/10/27 05:29:57;;;;;;;19.27;8.52;;;;;;;;;;5053098;28;20056;-75
2022/10/27 05:32:23;;;;;;;21.42;9.35;;;;;;;;;;5052679;28;20474;-73
2022/10/27 05:34:48;;;;;;;19.70;9.02;;;;;;;;;;5052900;28;20040;-73
2022/10/27 05:37:14;;;;;;;20.73;8.95;;;;;;;;;;5051449;28;20398;-73
2022/10/27 05:39:39;;;;;;;17.60;8.20;;;;;;;;;;5068131;28;20075;-75
2022/10/27 05:42:04;;;;;;;12.82;7.63;;;;;;;;;;5051313;28;20098;-73
2022/10/27 05:44:29;;;;;;;15.25;7.63;;;;;;;;;;5052631;28;20024;-73
2022/10/27 05:46:55;;;;;;;14.82;7.60;;;;;;;;;;5052544;28;20101;-73
2022/10/27 05:49:20;;;;;;;21.45;8.82;;;;;;;;;;5067920;28;20128;-73
2022/10/27 05:51:48;;;;;;;21.08;8.48;;;;;;;;;;5052354;28;20082;-73
2022/10/27 05:54:13;;;;;;;19.25;8.57;;;;;;;;;;5050920;28;20044;-73
2022/10/27 05:56:39;;;;;;;15.65;7.80;;;;;;;;;;5052657;28;20021;-73
2022/10/27 05:59:04;;;;;;;17.92;8.65;;;;;;;;;;5052360;28;20027;-73
2022/10/27 06:01:29;;;;;;;13.45;7.32;;;;;;;;;;5052521;28;20032;-73
2022/10/27 06:03:54;;;;;;;19.80;7.95;;;;;;;;;;5052415;28;20029;-74
2022/10/27 06:06:20;;;;;;;17.02;8.00;;;;;;;;;;5052208;28;20108;-74
2022/10/27 06:08:45;;;;;;;15.68;7.80;;;;;;;;;;5052684;28;20509;-74
2022/10/27 06:11:10;;;;;;;10.93;6.97;;;;;;;;;;5053855;28;20109;-74
2022/10/27 06:13:36;;;;;;;14.27;7.15;;;;;;;;;;5056420;28;20025;-74
2022/10/27 06:16:01;;;;;;;12.75;7.43;;;;;;;;;;5056311;28;20106;-74
2022/10/27 06:18:26;;;;;;;14.18;7.90;;;;;;;;;;5054947;28;20486;-74
2022/10/27 06:20:51;;;;;;;20.98;8.52;;;;;;;;;;5056531;28;20017;-73
2022/10/27 06:23:17;;;;;;;18.23;8.60;;;;;;;;;;5071422;28;20463;-75
2022/10/27 06:25:42;;;;;;;18.73;8.77;;;;;;;;;;5056059;28;20037;-73
2022/10/27 06:28:07;;;;;;;18.50;9.38;;;;;;;;;;5056115;28;20107;-74
2022/10/27 06:30:33;;;;;;;19.35;9.70;;;;;;;;;;5056164;28;20029;-74
2022/10/27 06:32:58;;;;;;;21.98;9.80;;;;;;;;;;5056346;28;20021;-74
2022/10/27 06:35:23;;;;;;;18.13;9.23;;;;;;;;;;5056288;28;20032;-75
2022/10/27 06:37:48;;;;;;;17.88;9.55;;;;;;;;;;5056026;28;20021;-74
2022/10/27 06:40:16;;;;;;;26.17;9.77;;;;;;;;;;5056214;28;20025;-74
2022/10/27 06:42:42;;;;;;;27.10;9.02;;;;;;;;;;5055703;28;20104;-74
2022/10/27 06:45:08;;;;;;;19.13;9.52;;;;;;;;;;5055795;28;20028;-74
2022/10/27 06:47:33;;;;;;;24.27;10.63;;;;;;;;;;5055711;28;20126;-74
2022/10/27 06:49:58;;;;;;;23.52;9.77;;;;;;;;;;5056037;28;20025;-73
2022/10/27 06:52:24;;;;;;;26.33;10.52;;;;;;;;;;5071055;28;20024;-73
2022/10/27 06:54:49;;;;;;;21.98;10.90;;;;;;;;;;5055678;28;20029;-73
2022/10/27 06:57:15;;;;;;;28.00;10.70;;;;;;;;;;5070993;28;20031;-72
2022/10/27 06:59:40;;;;;;;24.60;10.77;;;;;;;;;;5055567;28;20125;-73
2022/10/27 07:02:05;;;;;;;18.25;10.20;;;;;;;;;;5055664;28;20393;-73
2022/10/27 07:04:31;;;;;;;22.85;10.10;;;;;;;;;;5055783;28;20029;-73
2022/10/27 07:06:56;;;;;;;23.35;11.20;;;;;;;;;;5055310;28;20025;-73
2022/10/27 07:09:21;;;;;;;26.48;10.73;;;;;;;;;;5070656;28;20124;-73
2022/10/27 07:11:47;;;;;;;20.10;10.27;;;;;;;;;;5055334;28;20017;-75
2022/10/27 07:14:12;;;;;;;23.52;11.05;;;;;;;;;;5055266;28;20036;-74
2022/10/27 07:16:37;;;;;;;22.48;10.15;;;;;;;;;;5055290;28;20033;-74
2022/10/27 07:19:02;;;;;;;20.88;10.00;;;;;;;;;;5055314;28;20029;-74
2022/10/27 07:21:28;;;;;;;24.17;10.48;;;;;;;;;;5055117;28;20037;-74
2022/10/27 07:23:53;;;;;;;21.50;11.00;;;;;;;;;;5054397;28;20025;-74
2022/10/27 07:26:18;;;;;;;18.92;10.52;;;;;;;;;;5070392;28;20037;-74
2022/10/27 07:28:44;;;;;;;23.63;10.82;;;;;;;;;;5055245;28;20029;-73
2022/10/27 07:31:09;;;;;;;26.50;10.27;;;;;;;;;;5054882;28;20043;-74
2022/10/27 07:33:34;;;;;;;16.88;9.52;;;;;;;;;;5054808;28;20017;-74
2022/10/27 07:36:00;;;;;;;27.10;10.65;;;;;;;;;;5055432;28;20025;-74
2022/10/27 07:38:25;;;;;;;23.33;10.63;;;;;;;;;;5054766;28;20017;-74
2022/10/27 07:40:50;;;;;;;21.33;10.32;;;;;;;;;;5054947;28;20367;-74
2022/10/27 07:43:16;;;;;;;21.23;10.30;;;;;;;;;;5054740;28;20078;-74
2022/10/27 07:45:41;;;;;;;18.73;9.85;;;;;;;;;;5054844;28;20335;-73
2022/10/27 07:48:11;;;;;;;19.90;9.65;;;;;;;;;;5053190;28;20028;-74
2022/10/27 07:50:37;;;;;;;18.08;9.75;;;;;;;;;;5054391;28;20098;-74
2022/10/27 07:53:02;;;;;;;15.85;9.20;;;;;;;;;;5054632;28;20425;-76
2022/10/27 07:55:30;;;;;;;21.40;9.98;;;;;;;;;;5054572;28;20104;-74
2022/10/27 07:58:24;;;;;;;19.05;9.80;;;;;;;;;;5054371;28;20057;-74
2022/10/27 08:00:50;;;;;;;17.88;9.05;;;;;;;;;;5054153;28;20151;-74
2022/10/27 08:03:17;;;;;;;24.25;9.43;;;;;;;;;;5054226;28;20475;-74
2022/10/27 08:05:43;;;;;;;16.95;9.00;;;;;;;;;;5054274;28;20036;-73
2022/10/27 08:08:09;;;;;;;17.45;9.10;;;;;;;;;;5054302;28;20157;-74
2022/10/27 08:10:39;;;;;;;17.25;9.23;;;;;;;;;;5054234;28;20398;-74
2022/10/27 08:13:05;;;;;;;14.15;8.13;;;;;;;;;;5054357;28;20028;-74
2022/10/27 08:15:31;;;;;;;16.77;8.85;;;;;;;;;;5054194;28;20483;-75
2022/10/27 08:18:00;;;;;;;16.20;8.07;;;;;;;;;;5069476;28;20029;-74
2022/10/27 08:20:27;;;;;;;17.08;8.60;;;;;;;;;;5069453;28;20360;-75
2022/10/27 08:23:00;;;;;;;16.02;8.10;;;;;;;;;;5054197;28;20071;-74
2022/10/27 08:25:25;;;;;;;17.60;8.15;;;;;;;;;;5054315;28;20056;-73
2022/10/27 08:27:51;;;;;;;21.17;8.07;;;;;;;;;;5054154;28;20056;-74
2022/10/27 08:30:17;;;;;;;16.58;8.68;;;;;;;;;;5069092;28;20371;-74
2022/10/27 08:32:42;;;;;;;11.68;7.35;;;;;;;;;;5053643;28;20021;-74
2022/10/27 08:35:08;;;;;;;13.90;8.02;;;;;;;;;;5052608;28;20100;-74
2022/10/27 08:37:33;;;;;;;16.90;8.00;;;;;;;;;;5053737;28;20056;-74
2022/10/27 08:39:58;;;;;;;15.48;7.88;;;;;;;;;;5053569;28;20497;-74
2022/10/27 08:42:41;;;;;;;14.27;7.93;;;;;;;;;;5053813;28;20108;-74
2022/10/27 08:45:11;;;;;;;15.20;7.32;;;;;;;;;;5069139;28;20071;-75
2022/10/27 08:47:36;;;;;;;13.98;7.60;;;;;;;;;;5053892;28;20071;-74
2022/10/27 08:50:03;;;;;;;11.80;6.97;;;;;;;;;;5053635;28;20024;-75
2022/10/27 08:52:31;;;;;;;15.60;7.55;;;;;;;;;;5053396;28;20028;-74
2022/10/27 08:55:11;;;;;;;13.88;7.00;;;;;;;;;;5053562;28;20107;-76
2022/10/27 08:57:36;;;;;;;15.40;7.30;;;;;;;;;;5053396;28;20024;-76
2022/10/27 09:00:02;;;;;;;15.65;6.70;;;;;;;;;;5053663;28;20060;-76
2022/10/27 09:03:09;;;;;;;17.90;7.13;;;;;;;;;;5053324;28;20077;-76
2022/10/27 09:05:50;;;;;;;16.75;8.48;;;;;;;;;;5052993;28;20379;-76
2022/10/27 09:08:46;;;;;;;11.63;6.60;;;;;;;;;;5053459;28;20029;-76
2022/10/27 09:12:12;;;;;;;12.20;6.10;;;;;;;;;;5053160;28;20482;-75
2022/10/27 09:15:01;;;;;;;10.77;6.53;;;;;;;;;;5050796;28;20021;-76
2022/10/27 09:17:31;;;;;;;13.07;6.78;;;;;;;;;;5051028;28;20036;-76
2022/10/27 09:20:07;;;;;;;12.63;5.90;;;;;;;;;;5053457;28;20025;-76
2022/10/27 09:22:36;;;;;;;12.35;5.65;;;;;;;;;;5052778;28;20029;-76
2022/10/27 09:25:05;;;;;;;8.77;5.75;;;;;;;;;;5053320;28;20029;-76
2022/10/27 09:27:31;;;;;;;11.75;5.68;;;;;;;;;;5068138;28;20048;-76
2022/10/27 09:30:00;;;;;;;13.18;6.20;;;;;;;;;;5052800;28;20025;-76
2022/10/27 09:32:26;;;;;;;11.48;6.10;;;;;;;;;;5052966;28;20545;-76
2022/10/27 09:35:00;;;;;;;11.30;6.50;;;;;;;;;;5051457;28;20104;-75
2022/10/27 09:37:26;;;;;;;9.48;6.10;;;;;;;;;;5068067;28;20485;-76
2022/10/27 09:39:53;;;;;;;12.30;6.07;;;;;;;;;;5052694;28;20033;-76
2022/10/27 09:42:20;;;;;;;17.65;6.40;;;;;;;;;;5052726;28;20043;-75
2022/10/27 09:44:54;;;;;;;9.73;5.82;;;;;;;;;;5052608;28;20025;-75
2022/10/27 09:47:22;;;;;;;11.50;6.35;;;;;;;;;;5067558;28;20102;-77
2022/10/27 09:49:48;;;;;;;10.20;5.80;;;;;;;;;;5052774;28;20037;-76
2022/10/27 09:52:22;;;;;;;12.70;6.15;;;;;;;;;;5068177;28;20025;-76
2022/10/27 09:54:53;;;;;;;12.50;6.32;;;;;;;;;;5052971;28;20057;-76
2022/10/27 09:57:22;;;;;;;12.05;6.07;;;;;;;;;;5052477;28;20036;-76
2022/10/27 10:00:23;;;;;;;9.48;5.72;;;;;;;;;;5052677;28;20143;-75
2022/10/27 10:03:02;;;;;;;13.38;6.30;;;;;;;;;;5067666;28;20399;-76
2022/10/27 10:05:31;;;;;;;9.63;5.50;;;;;;;;;;5067945;28;20434;-76
2022/10/27 10:08:18;;;;;;;13.23;6.00;;;;;;;;;;5052468;28;20067;-77
2022/10/27 10:11:01;;;;;;;15.50;5.93;;;;;;;;;;5052456;28;20020;-76
2022/10/27 10:13:30;;;;;;;14.27;6.10;;;;;;;;;;5052423;28;20017;-76
2022/10/27 10:16:16;;;;;;;9.25;6.10;;;;;;;;;;5052643;28;20391;-76
2022/10/27 10:18:59;;;;;;;15.25;5.70;;;;;;;;;;5067968;28;20028;-77
2022/10/27 10:21:24;;;;;;;10.40;5.70;;;;;;;;;;5052623;28;20107;-77
2022/10/27 10:23:56;;;;;;;11.75;6.10;;;;;;;;;;5052494;28;20120;-76
2022/10/27 10:26:24;;;;;;;9.07;5.80;;;;;;;;;;5052213;28;20036;-76
2022/10/27 10:28:53;;;;;;;9.88;5.82;;;;;;;;;;5067525;28;20025;-76
2022/10/27 10:31:27;;;;;;;9.02;5.28;;;;;;;;;;5052213;28;20032;-75
2022/10/27 10:34:00;;;;;;;13.80;5.78;;;;;;;;;;5067812;28;20505;-76
2022/10/27 10:36:39;;;;;;;10.02;5.88;;;;;;;;;;5052749;28;20029;-76
2022/10/27 10:39:25;;;;;;;9.38;5.05;;;;;;;;;;5067586;28;20031;-77
2022/10/27 10:42:15;;;;;;;10.45;5.55;;;;;;;;;;5052173;28;20044;-76
2022/10/27 10:44:41;;;;;;;9.73;5.07;;;;;;;;;;5051685;28;20025;-75
2022/10/27 10:47:27;;;;;;;11.38;5.10;;;;;;;;;;5067535;28;20032;-72
2022/10/27 10:49:55;;;;;;;15.13;5.80;;;;;;;;;;5052721;28;20441;-73
2022/10/27 10:52:33;;;;;;;8.43;5.30;;;;;;;;;;5067016;28;20033;-73
2022/10/27 10:55:05;;;;;;;11.00;5.22;;;;;;;;;;5051851;28;20500;-75
2022/10/27 10:57:38;;;;;;;8.38;5.07;;;;;;;;;;5052558;28;20090;-74
2022/10/27 11:00:05;;;;;;;11.02;5.10;;;;;;;;;;5056517;28;20048;-74
2022/10/27 11:02:32;;;;;;;9.88;5.22;;;;;;;;;;5055586;28;20040;-74
2022/10/27 11:05:11;;;;;;;10.32;5.35;;;;;;;;;;5071369;28;20035;-74
2022/10/27 11:07:37;;;;;;;13.73;5.90;;;;;;;;;;5054676;28;20053;-74
2022/10/27 11:10:25;;;;;;;7.43;4.57;;;;;;;;;;5071299;28;20044;-73
2022/10/27 11:13:10;;;;;;;11.38;4.47;;;;;;;;;;5055443;28;20090;-74
2022/10/27 11:15:53;;;;;;;10.75;4.80;;;;;;;;;;5056073;28;20034;-73
2022/10/27 11:18:28;;;;;;;12.43;4.10;;;;;;;;;;5055953;28;20037;-72
2022/10/27 11:21:06;;;;;;;9.10;4.82;;;;;;;;;;5055515;28;20025;-74
2022/10/27 11:23:45;;;;;;;9.77;4.82;;;;;;;;;;5054182;28;20037;-73
2022/10/27 11:26:13;;;;;;;7.15;4.30;;;;;;;;;;5055569;28;20029;-75
2022/10/27 11:28:56;;;;;;;8.52;4.45;;;;;;;;;;5055423;28;20021;-73
2022/10/27 11:31:47;;;;;;;7.15;3.97;;;;;;;;;;5055424;28;20058;-73
2022/10/27 11:34:51;;;;;;;5.45;3.45;;;;;;;;;;5055426;28;20510;-73
2022/10/27 11:37:27;;;;;;;8.77;4.20;;;;;;;;;;5054666;28;20045;-75
2022/10/27 11:39:57;;;;;;;7.88;3.60;;;;;;;;;;5055292;28;20044;-74
2022/10/27 11:42:33;;;;;;;6.82;3.20;;;;;;;;;;5055909;28;20025;-73
2022/10/27 11:45:23;;;;;;;10.93;3.53;;;;;;;;;;5055453;28;20466;-74
2022/10/27 11:47:57;;;;;;;9.30;3.17;;;;;;;;;;5055275;28;20037;-73
2022/10/27 11:50:26;;;;;;;6.85;3.22;;;;;;;;;;5070503;28;20074;-73
2022/10/27 11:52:54;;;;;;;10.30;3.42;;;;;;;;;;5054966;28;20104;-74
2022/10/27 11:55:23;;;;;;;6.22;3.22;;;;;;;;;;5070261;28;20032;-73
2022/10/27 11:58:01;;;;;;;6.95;3.22;;;;;;;;;;5055224;28;20031;-73
2022/10/27 12:00:30;;;;;;;5.80;3.25;;;;;;;;;;5055094;28;20025;-73
2022/10/27 12:03:37;;;;;;;6.60;2.83;;;;;;;;;;5054613;28;20021;-73
2022/10/27 12:06:13;;;;;;;5.32;2.58;;;;;;;;;;5054436;28;20043;-73
2022/10/27 12:08:47;;;;;;;4.35;2.42;;;;;;;;;;5054686;28;20049;-74
2022/10/27 12:11:25;;;;;;;5.65;2.58;;;;;;;;;;5055078;28;20474;-73
2022/10/27 12:14:15;;;;;;;5.97;2.75;;;;;;;;;;5054609;28;20033;-73
2022/10/27 12:16:52;;;;;;;4.00;2.90;;;;;;;;;;5054595;28;20036;-74
2022/10/27 12:19:26;;;;;;;6.70;2.85;;;;;;;;;;5054777;28;20060;-74
2022/10/27 12:21:57;;;;;;;7.05;3.13;;;;;;;;;;5054742;28;20504;-73
2022/10/27 12:24:35;;;;;;;3.80;2.10;;;;;;;;;;5054648;28;20020;-74
2022/10/27 12:27:15;;;;;;;6.30;1.90;;;;;;;;;;5054739;28;20044;-72
2022/10/27 12:29:47;;;;;;;6.60;2.00;;;;;;;;;;5055019;28;20028;-73
2022/10/27 12:32:21;;;;;;;8.90;1.70;;;;;;;;;;5054309;28;20024;-73
2022/10/27 12:34:49;;;;;;;;;;;;;;;;;;5054783;28;20168;-73
2022/10/27 12:37:36;;;;;;;3.95;1.92;;;;;;;;;;5054149;28;19909;-73
2022/10/27 12:40:29;;;;;;;4.38;1.80;;;;;;;;;;5054278;28;20041;-72
2022/10/27 12:43:08;;;;;;;3.95;1.83;;;;;;;;;;5053411;28;20043;-73
2022/10/27 12:45:49;;;;;;;2.47;1.58;;;;;;;;;;5054384;28;20031;-74
2022/10/27 12:48:23;;;;;;;7.82;1.60;;;;;;;;;;5054309;28;20028;-73
2022/10/27 12:51:00;;;;;;;6.80;1.92;;;;;;;;;;5054366;28;20124;-74
2022/10/27 12:53:42;;;;;;;5.10;1.70;;;;;;;;;;5054452;28;20374;-73
2022/10/27 12:56:29;;;;;;;3.65;1.70;;;;;;;;;;5053863;28;20571;-73
2022/10/27 12:59:13;;;;;;;6.82;2.10;;;;;;;;;;5053711;28;20036;-74
2022/10/27 13:02:00;;;;;;;3.00;1.80;;;;;;;;;;5053725;28;20036;-74
2022/10/27 13:04:25;;;;;;;4.88;2.15;;;;;;;;;;5053464;28;20037;-73
2022/10/27 13:07:05;;;;;;;5.57;2.37;;;;;;;;;;5053920;28;20135;-74
2022/10/27 13:10:11;;;;;;;5.90;2.10;;;;;;;;;;5053994;28;20626;-73
2022/10/27 13:13:03;;;;;;;4.43;2.05;;;;;;;;;;5053697;28;20028;-74
2022/10/27 13:15:49;;;;;;;3.30;1.92;;;;;;;;;;5052857;28;20036;-75
2022/10/27 13:18:36;;;;;;;5.28;1.48;;;;;;;;;;5053645;28;20029;-73
2022/10/27 13:21:28;;;;;;;4.35;1.77;;;;;;;;;;5052855;28;20075;-75
2022/10/27 13:24:14;;;;;;;2.95;1.55;;;;;;;;;;5053180;28;20033;-73
2022/10/27 13:27:21;;;;;;;5.30;1.55;;;;;;;;;;5053410;28;20494;-74
2022/10/27 13:29:55;;;;;;;4.43;1.75;;;;;;;;;;5052527;28;20048;-73
2022/10/27 13:32:26;;;;;;;3.55;1.45;;;;;;;;;;5053162;28;20025;-73
2022/10/27 13:35:11;;;;;;;5.28;1.40;;;;;;;;;;5068604;28;20021;-73
2022/10/27 13:37:48;;;;;;;3.38;1.20;;;;;;;;;;5051305;28;20044;-73
2022/10/27 13:40:20;;;;;;;5.82;1.58;;;;;;;;;;5053343;28;20100;-72
2022/10/27 13:42:53;;;;;;;2.38;1.40;;;;;;;;;;5068227;28;20102;-74
2022/10/27 13:45:33;;;;;;;2.53;1.40;;;;;;;;;;5053273;28;20025;-73
2022/10/27 13:48:08;;;;;;;3.10;1.23;;;;;;;;;;5068524;28;20383;-74
2022/10/27 13:50:36;;;;;;;7.07;1.63;;;;;;;;;;5068119;28;20017;-75
2022/10/27 13:53:14;;;;;;;3.28;1.30;;;;;;;;;;5052917;28;20025;-72
2022/10/27 13:55:46;;;;;;;5.38;1.55;;;;;;;;;;5068391;28;20021;-73
2022/10/27 13:58:18;;;;;;;6.70;1.30;;;;;;;;;;5068203;28;20128;-74
2022/10/27 14:01:01;;;;;;;4.68;1.10;;;;;;;;;;5068336;28;20123;-73
2022/10/27 14:03:36;;;;;;;2.80;1.38;;;;;;;;;;5052809;28;20025;-73
2022/10/27 14:06:07;;;;;;;5.63;1.40;;;;;;;;;;5052779;28;20031;-74
2022/10/27 14:08:43;;;;;;;1.77;1.13;;;;;;;;;;5052704;28;20025;-73
2022/10/27 14:11:11;;;;;;;4.07;1.10;;;;;;;;;;5052892;28;20033;-72
2022/10/27 14:13:44;;;;;;;4.13;1.30;;;;;;;;;;5052753;28;20563;-74
2022/10/27 14:16:18;;;;;;;2.42;1.08;;;;;;;;;;5052794;28;20128;-75
2022/10/27 14:18:44;;;;;;;3.47;1.20;;;;;;;;;;5068033;28;20028;-73
2022/10/27 14:21:21;;;;;;;3.00;1.00;;;;;;;;;;5052774;28;20115;-74
2022/10/27 14:23:47;;;;;;;3.67;1.15;;;;;;;;;;5052461;28;20032;-74
2022/10/27 14:26:30;;;;;;;5.30;1.48;;;;;;;;;;5052566;28;20033;-75
2022/10/27 14:28:55;;;;;;;7.30;1.20;;;;;;;;;;5052891;28;20025;-73
2022/10/27 14:31:22;;;;;;;6.00;1.15;;;;;;;;;;5052710;28;20108;-73
2022/10/27 14:33:49;;;;;;;2.42;1.13;;;;;;;;;;5056454;28;20017;-74
2022/10/27 14:36:23;;;;;;;2.97;1.00;;;;;;;;;;5056544;28;20021;-73
2022/10/27 14:38:52;;;;;;;3.38;1.20;;;;;;;;;;5055116;28;20078;-74
2022/10/27 14:41:19;;;;;;;6.88;1.13;;;;;;;;;;5056327;28;20029;-73
2022/10/27 14:43:55;;;;;;;2.75;1.23;;;;;;;;;;5055928;28;20079;-74
2022/10/27 14:46:29;;;;;;;2.90;1.13;;;;;;;;;;5056383;28;20028;-74
2022/10/27 14:49:02;;;;;;;2.17;1.13;;;;;;;;;;5056523;28;20500;-73
2022/10/27 14:51:31;;;;;;;2.83;1.00;;;;;;;;;;5056488;28;20494;-73
2022/10/27 14:53:57;;;;;;;1.33;0.95;;;;;;;;;;5056030;28;20024;-74
2022/10/27 14:56:25;;;;;;;3.22;1.15;;;;;;;;;;5055871;28;20033;-73